Time;durP1;ratioP1;P1;durP2;ratioP2;P2;SDS_P1;SDS_P2;PMS_P1;PMS_P2;Temp;Humidity;BMP_temperature;BMP_pressure;BME280_temperature;BME280_humidity;BME280_pressure;Samples;Min_cycle;Max_cycle;Signal;HPM_P1;HPM_P2
2022/02/10 00:38:13;;;;;;;4.15;3.75;;;10.60;85.30;;;;;;4967156;28;20034;-68
2022/02/10 00:40:39;;;;;;;5.05;3.80;;;10.60;85.10;;;;;;4967309;28;20035;-68
2022/02/10 00:43:06;;;;;;;4.50;3.47;;;10.60;84.80;;;;;;4967041;28;20093;-68
2022/02/10 00:45:34;;;;;;;5.90;4.30;;;10.60;85.30;;;;;;4966962;28;20038;-68
2022/02/10 00:48:02;;;;;;;6.55;4.30;;;10.60;85.40;;;;;;4966872;28;20038;-68
2022/02/10 00:50:30;;;;;;;5.82;4.00;;;10.60;84.40;;;;;;4966981;28;20509;-68
2022/02/10 00:53:43;;;;;;;4.82;3.90;;;10.60;84.60;;;;;;4966823;28;20062;-68
2022/02/10 00:55:45;;;;;;;4.20;3.65;;;10.60;84.80;;;;;;4956500;28;20047;-68
2022/02/10 00:58:19;;;;;;;4.60;3.75;;;10.60;85.20;;;;;;4963600;28;20568;-67
2022/02/10 01:24:30;;;;;;;5.63;3.58;;;10.60;85.00;;;;;;4965942;28;20038;-68
2022/02/10 01:30:18;;;;;;;6.25;3.50;;;10.60;85.30;;;;;;4964500;28;20129;-68
2022/02/10 01:32:47;;;;;;;4.30;3.30;;;10.50;85.40;;;;;;4965782;28;20538;-68
2022/02/10 01:35:19;;;;;;;3.65;3.20;;;10.50;85.50;;;;;;4965960;28;20177;-68
2022/02/10 01:37:45;;;;;;;5.32;3.83;;;10.50;85.70;;;;;;4966116;28;20038;-68
2022/02/10 01:40:19;;;;;;;4.13;3.60;;;10.50;85.60;;;;;;4966206;28;20042;-68
2022/02/10 01:57:47;;;;;;;3.60;3.00;;;10.40;85.90;;;;;;4953479;28;20078;-68
2022/02/10 02:04:55;;;;;;;4.72;3.80;;;10.40;85.80;;;;;;4965759;28;20054;-67
2022/02/10 02:07:28;;;;;;;4.97;3.47;;;10.30;85.80;;;;;;4965588;28;20038;-68
2022/02/10 02:09:54;;;;;;;5.35;3.72;;;10.40;85.80;;;;;;4965721;28;20526;-68
2022/02/10 02:12:19;;;;;;;5.97;3.90;;;10.40;85.80;;;;;;4965736;28;20038;-68
2022/02/10 02:14:45;;;;;;;4.90;3.58;;;10.40;85.60;;;;;;4965803;28;20042;-67
2022/02/10 02:17:11;;;;;;;4.80;4.07;;;10.40;85.50;;;;;;4965707;28;20104;-68
2022/02/10 02:19:36;;;;;;;7.25;4.10;;;10.40;85.50;;;;;;4965609;28;20073;-68
2022/02/10 02:22:07;;;;;;;5.53;3.80;;;10.40;85.40;;;;;;4965407;28;20069;-68
2022/02/10 02:24:33;;;;;;;5.63;4.00;;;10.40;85.10;;;;;;4963307;28;20125;-68
2022/02/10 02:27:02;;;;;;;5.72;3.42;;;10.40;85.50;;;;;;4965821;28;20687;-68
2022/02/10 02:29:37;;;;;;;4.85;3.53;;;10.40;85.30;;;;;;4965351;28;20023;-67
2022/02/10 02:32:10;;;;;;;5.78;3.88;;;10.40;85.30;;;;;;4965193;28;20053;-68
2022/02/10 02:39:58;;;;;;;5.18;4.15;;;10.40;85.40;;;;;;4965133;28;20045;-68
2022/02/10 03:06:37;;;;;;;6.03;4.03;;;10.40;85.30;;;;;;4969171;28;20499;-68
2022/02/10 03:09:14;;;;;;;6.40;4.03;;;10.40;85.00;;;;;;4965283;28;20035;-68
2022/02/10 03:11:42;;;;;;;5.60;3.72;;;10.40;85.10;;;;;;4968510;28;20076;-68
2022/02/10 03:14:13;;;;;;;5.32;3.72;;;10.40;85.30;;;;;;4968742;28;20030;-67
2022/02/10 03:17:01;;;;;;;5.55;3.65;;;10.40;85.20;;;;;;4968620;28;20039;-68
2022/02/10 03:19:54;;;;;;;4.22;3.60;;;10.40;85.20;;;;;;4966097;28;20053;-67
2022/02/10 04:03:32;;;;;;;5.05;3.83;;;10.20;85.60;;;;;;4968171;28;20030;-68
2022/02/10 04:09:40;;;;;;;4.72;3.55;;;10.20;85.60;;;;;;4953931;28;20498;-68
2022/02/10 04:16:41;;;;;;;6.32;3.63;;;10.20;85.00;;;;;;4966730;28;20066;-68
2022/02/10 04:26:40;;;;;;;3.63;3.10;;;10.20;85.30;;;;;;4967598;28;20031;-68
2022/02/10 04:53:04;;;;;;;5.25;3.10;;;10.20;84.50;;;;;;4967138;28;20038;-67
2022/02/10 05:33:22;;;;;;;4.95;3.38;;;10.00;83.20;;;;;;4963020;28;20074;-68
2022/02/10 05:35:51;;;;;;;4.75;2.85;;;9.90;83.70;;;;;;4966285;28;20065;-68
2022/02/10 05:57:15;;;;;;;5.10;3.45;;;10.00;82.70;;;;;;4967285;28;20035;-67
2022/02/10 07:02:58;;;;;;;5.68;3.45;;;9.90;81.20;;;;;;4962997;28;20034;-68
2022/02/10 07:47:06;;;;;;;12.27;6.10;;;10.10;81.90;;;;;;4966451;28;20039;-67
2022/02/10 07:54:14;;;;;;;5.55;3.95;;;10.20;82.00;;;;;;4964191;28;20027;-68
2022/02/10 08:52:16;;;;;;;6.93;3.72;;;11.10;81.00;;;;;;4966379;28;20125;-68
2022/02/10 08:56:28;;;;;;;10.27;5.03;;;11.20;80.90;;;;;;4967149;28;20050;-68
2022/02/10 09:04:29;;;;;;;7.10;4.05;;;11.40;80.40;;;;;;4951375;28;20126;-68
2022/02/10 09:51:36;;;;;;;6.05;3.83;;;11.80;80.00;;;;;;4970809;28;20034;-67
2022/02/10 10:48:15;;;;;;;6.57;4.05;;;11.40;84.80;;;;;;5097919;28;20032;-69
2022/02/10 10:50:08;;;;;;;9.93;4.53;;;11.80;82.80;;;;;;5099348;28;20035;-69
2022/02/10 10:54:41;;;;;;;7.55;5.18;;;12.40;80.20;;;;;;5091959;28;20040;-69
2022/02/10 10:57:21;;;;;;;11.90;5.82;;;12.60;79.40;;;;;;5096804;28;20032;-70
2022/02/10 11:00:26;;;;;;;8.63;4.53;;;12.80;77.70;;;;;;5097774;28;20023;-69
2022/02/10 13:48:08;;;;;;;7.78;3.25;;;11.10;84.40;;;;;;5075068;28;20380;-71
2022/02/10 14:15:22;;;;;;;0.85;0.52;;;9.30;89.70;;;;;;5079429;28;20514;-70
2022/02/10 14:18:02;;;;;;;0.50;0.40;;;9.30;90.40;;;;;;5078678;28;20063;-69
2022/02/10 14:25:51;;;;;;;0.40;0.32;;;9.20;90.90;;;;;;5079509;28;20054;-70
2022/02/10 14:28:18;;;;;;;0.68;0.40;;;9.20;91.20;;;;;;5077365;28;20032;-70
2022/02/10 14:30:47;;;;;;;2.83;0.80;;;9.20;91.20;;;;;;5079980;28;20113;-69
2022/02/10 14:33:13;;;;;;;2.30;0.70;;;9.20;91.00;;;;;;5083261;28;20036;-70
2022/02/10 14:35:56;;;;;;;0.75;0.45;;;9.20;91.00;;;;;;5078042;28;20039;-69
2022/02/10 14:41:44;;;;;;;1.65;0.60;;;9.10;90.80;;;;;;5079198;28;20020;-71
2022/02/10 15:54:54;;;;;;;2.88;2.53;;;8.50;92.40;;;;;;5081912;28;20032;-72
2022/02/10 16:10:59;;;;;;;7.78;4.43;;;8.40;92.80;;;;;;5084751;28;20024;-69
2022/02/10 16:18:47;;;;;;;3.13;2.63;;;8.40;92.90;;;;;;5081365;28;20055;-71
2022/02/10 16:21:17;;;;;;;4.82;2.65;;;8.40;92.60;;;;;;5082759;28;20376;-72
2022/02/10 16:23:44;;;;;;;2.95;2.55;;;8.40;92.60;;;;;;5080940;28;20028;-70
2022/02/10 16:26:15;;;;;;;3.63;2.30;;;8.40;92.50;;;;;;5081912;28;20028;-66
2022/02/10 16:28:41;;;;;;;2.63;1.83;;;8.40;92.50;;;;;;5080498;28;20032;-66
2022/02/10 16:31:14;;;;;;;2.95;1.90;;;8.40;92.60;;;;;;5082080;28;20048;-67
2022/02/10 16:33:43;;;;;;;6.93;3.33;;;8.40;92.30;;;;;;5080860;28;20056;-66
2022/02/10 16:36:16;;;;;;;11.85;6.32;;;8.30;92.30;;;;;;5079884;28;20040;-67
2022/02/10 16:38:44;;;;;;;10.77;4.82;;;8.30;92.40;;;;;;5081719;28;20032;-67
2022/02/10 16:41:10;;;;;;;10.45;5.55;;;8.30;92.40;;;;;;5084657;28;20020;-66
2022/02/10 16:43:36;;;;;;;17.77;8.88;;;8.20;92.70;;;;;;5080493;28;20035;-65
2022/02/10 16:46:01;;;;;;;21.95;10.90;;;8.20;92.50;;;;;;5081272;28;20036;-66
2022/02/10 16:48:28;;;;;;;9.18;3.72;;;8.20;92.60;;;;;;5081058;28;20415;-67
2022/02/10 16:50:54;;;;;;;8.43;4.13;;;8.30;92.30;;;;;;5080877;28;20062;-66
2022/02/10 16:53:24;;;;;;;16.05;7.50;;;8.20;92.40;;;;;;5080716;28;20024;-66
2022/02/10 16:56:01;;;;;;;16.23;8.32;;;8.20;92.60;;;;;;5082179;28;20062;-67
2022/02/10 16:58:42;;;;;;;13.20;7.00;;;8.10;92.80;;;;;;5076941;28;20059;-64
2022/02/10 17:17:55;;;;;;;8.02;5.35;;;8.20;92.90;;;;;;5079984;28;20111;-67
2022/02/10 17:20:40;;;;;;;8.35;5.00;;;8.20;93.00;;;;;;5079527;28;20028;-67
2022/02/10 17:26:02;;;;;;;5.38;3.95;;;8.20;93.00;;;;;;5082209;28;20036;-67
2022/02/10 17:28:27;;;;;;;;;;;8.20;93.00;;;;;;5077451;28;20481;-67
2022/02/10 17:33:29;;;;;;;11.32;5.22;;;8.20;93.10;;;;;;5079282;28;20103;-64
2022/02/10 17:36:05;;;;;;;5.07;3.70;;;8.20;93.20;;;;;;5077785;28;20032;-63
2022/02/10 17:41:54;;;;;;;6.15;3.25;;;8.20;93.20;;;;;;5082113;28;20061;-63
2022/02/10 17:44:19;;;;;;;5.45;3.05;;;8.20;93.10;;;;;;5078385;28;20605;-63
2022/02/10 17:52:10;;;;;;;3.65;2.72;;;8.20;93.10;;;;;;5078833;28;20391;-63
2022/02/10 17:54:36;;;;;;;5.65;3.38;;;8.30;93.10;;;;;;5077640;28;20043;-65
2022/02/10 17:57:02;;;;;;;8.32;4.30;;;8.30;93.00;;;;;;5081289;28;20028;-63
2022/02/10 17:59:28;;;;;;;8.38;4.72;;;8.30;92.80;;;;;;5076074;28;20032;-64
2022/02/10 18:01:54;;;;;;;12.07;4.20;;;8.40;92.60;;;;;;5080345;28;20028;-64
2022/02/10 18:04:23;;;;;;;3.70;2.10;;;8.30;92.50;;;;;;5080921;28;20035;-63
2022/02/10 18:06:53;;;;;;;4.75;2.30;;;8.40;92.60;;;;;;5078136;28;20081;-64
2022/02/10 18:14:53;;;;;;;4.00;1.63;;;8.40;92.50;;;;;;5081954;28;20479;-63
2022/02/10 18:17:25;;;;;;;2.80;1.75;;;8.40;92.60;;;;;;5077005;28;20063;-63
2022/02/10 18:19:56;;;;;;;3.90;1.90;;;8.40;92.60;;;;;;5082016;28;20024;-64
2022/02/10 18:27:42;;;;;;;3.95;2.05;;;8.40;92.60;;;;;;5078136;28;20033;-68
2022/02/10 18:30:16;;;;;;;2.88;1.60;;;8.50;92.60;;;;;;5076864;28;20032;-63
2022/02/10 19:06:29;;;;;;;9.43;3.17;;;8.40;92.80;;;;;;5086216;28;20039;-67
2022/02/10 19:09:05;;;;;;;11.32;4.95;;;8.30;92.80;;;;;;5086798;28;20123;-67
2022/02/10 19:11:32;;;;;;;13.75;4.90;;;8.30;92.80;;;;;;5080916;28;20066;-67
2022/02/10 19:14:03;;;;;;;11.43;4.60;;;8.30;92.80;;;;;;5082884;28;20024;-72
2022/02/10 19:16:29;;;;;;;17.02;4.22;;;8.20;92.80;;;;;;5079411;28;20028;-65
2022/02/10 19:18:55;;;;;;;13.63;3.88;;;8.20;92.90;;;;;;5081114;28;20089;-65
2022/02/10 19:21:21;;;;;;;14.18;3.92;;;8.20;93.00;;;;;;5082818;28;20020;-65
2022/02/10 19:23:46;;;;;;;8.15;2.92;;;8.20;92.50;;;;;;5082538;28;20421;-65
2022/02/10 19:26:13;;;;;;;8.10;3.35;;;8.10;92.60;;;;;;5082507;28;20032;-65
2022/02/10 19:28:38;;;;;;;8.90;3.70;;;8.10;92.70;;;;;;5081205;28;20048;-65
2022/02/10 19:31:06;;;;;;;7.28;2.83;;;8.10;92.60;;;;;;5080477;28;20058;-65
2022/02/10 19:33:32;;;;;;;6.63;2.97;;;8.10;92.70;;;;;;5080898;28;20038;-65
2022/02/10 19:36:00;;;;;;;7.95;3.22;;;8.00;92.90;;;;;;5082057;28;20036;-65
2022/02/10 19:38:28;;;;;;;6.05;2.85;;;8.00;92.80;;;;;;5078240;28;20063;-65
2022/02/10 19:40:55;;;;;;;5.07;2.97;;;8.00;92.90;;;;;;5078957;28;20028;-65
2022/02/10 19:43:22;;;;;;;6.80;3.40;;;8.00;93.00;;;;;;5085348;28;20039;-65
2022/02/10 19:45:49;;;;;;;7.80;3.28;;;7.90;93.00;;;;;;5079702;28;20393;-65
2022/02/10 19:48:15;;;;;;;4.82;3.20;;;8.00;93.00;;;;;;5081973;28;20035;-65
2022/02/10 19:50:42;;;;;;;4.95;3.20;;;7.90;93.00;;;;;;5081980;28;20017;-65
2022/02/10 19:53:10;;;;;;;5.65;3.22;;;7.90;93.00;;;;;;5079241;28;20031;-65
2022/02/10 19:55:39;;;;;;;6.35;3.42;;;7.90;93.10;;;;;;5078604;28;20502;-65
2022/02/10 19:58:08;;;;;;;7.63;3.75;;;8.00;93.20;;;;;;5083189;28;20118;-65
2022/02/10 20:00:40;;;;;;;8.45;4.85;;;8.00;93.10;;;;;;5078240;28;20040;-65
2022/02/10 20:03:19;;;;;;;7.15;4.35;;;8.00;93.00;;;;;;5082317;28;20066;-65
2022/02/10 20:05:48;;;;;;;6.88;3.92;;;8.00;93.00;;;;;;5082600;28;20754;-65
2022/02/10 20:08:17;;;;;;;8.93;3.90;;;8.00;93.00;;;;;;5082352;28;20078;-65
2022/02/10 20:10:43;;;;;;;4.93;3.60;;;8.00;93.00;;;;;;5082907;28;20043;-65
2022/02/10 20:13:15;;;;;;;7.80;3.88;;;8.00;93.00;;;;;;5083890;28;20024;-65
2022/02/10 20:15:46;;;;;;;6.57;3.70;;;8.00;93.00;;;;;;5083577;28;20033;-65
2022/02/10 20:18:14;;;;;;;8.32;4.28;;;8.00;93.00;;;;;;5078332;28;20615;-65
2022/02/10 20:20:42;;;;;;;6.65;4.25;;;8.00;92.90;;;;;;5083796;28;20698;-65
2022/02/10 20:23:10;;;;;;;7.85;4.30;;;8.00;92.90;;;;;;5081096;28;20467;-65
2022/02/10 20:25:37;;;;;;;6.53;4.18;;;8.00;92.90;;;;;;5078760;28;20020;-65
2022/02/10 20:28:03;;;;;;;12.00;4.93;;;8.00;92.90;;;;;;5084160;28;20129;-64
2022/02/10 20:30:31;;;;;;;7.50;4.88;;;8.10;92.80;;;;;;5077325;28;20039;-64
2022/02/10 20:32:57;;;;;;;8.15;4.57;;;8.10;92.70;;;;;;5077611;28;20032;-65
2022/02/10 20:35:22;;;;;;;9.57;4.93;;;8.00;92.80;;;;;;5083275;28;20035;-69
2022/02/10 20:37:53;;;;;;;9.80;5.10;;;8.00;92.70;;;;;;5079753;28;20444;-65
2022/02/10 20:40:18;;;;;;;9.30;5.53;;;8.10;92.70;;;;;;5075077;28;20027;-66
2022/02/10 20:42:44;;;;;;;10.98;5.53;;;8.10;92.70;;;;;;5081625;28;20132;-65
2022/02/10 20:45:10;;;;;;;11.68;4.90;;;8.10;92.60;;;;;;5080095;28;20134;-65
2022/02/10 20:47:36;;;;;;;13.82;5.80;;;8.10;92.50;;;;;;5073855;28;20037;-65
2022/02/10 20:50:03;;;;;;;11.45;5.90;;;8.10;92.40;;;;;;5083500;28;20137;-66
2022/02/10 20:52:31;;;;;;;10.30;5.57;;;8.10;92.30;;;;;;5079282;28;20028;-66
2022/02/10 20:54:58;;;;;;;13.27;5.55;;;8.10;92.50;;;;;;5077045;28;20028;-66
2022/02/10 20:57:24;;;;;;;8.27;4.78;;;8.10;92.40;;;;;;5080377;28;20035;-66
2022/02/10 20:59:49;;;;;;;11.50;5.45;;;8.10;92.40;;;;;;5080770;28;20389;-66
2022/02/10 21:02:18;;;;;;;8.82;5.07;;;8.10;92.30;;;;;;5077181;28;20028;-66
2022/02/10 21:04:56;;;;;;;11.30;5.80;;;8.10;92.40;;;;;;5082778;28;20036;-65
2022/02/10 21:12:13;;;;;;;9.73;4.90;;;8.10;92.30;;;;;;5080794;28;20028;-65
2022/02/10 21:14:40;;;;;;;10.82;5.32;;;8.10;92.10;;;;;;5079708;28;20067;-66
2022/02/10 21:17:10;;;;;;;9.88;5.20;;;8.00;92.10;;;;;;5078510;28;20106;-66
2022/02/10 21:19:37;;;;;;;10.15;5.13;;;8.10;92.10;;;;;;5077988;28;20081;-66
2022/02/10 21:22:08;;;;;;;8.30;4.43;;;8.10;92.10;;;;;;5081275;28;20028;-65
2022/02/10 21:24:38;;;;;;;11.07;5.05;;;8.10;92.00;;;;;;5075802;28;20036;-65
2022/02/10 21:27:29;;;;;;;8.25;4.65;;;8.10;92.00;;;;;;5080737;28;20038;-66
2022/02/10 21:29:55;;;;;;;8.55;5.07;;;8.10;91.90;;;;;;5080228;28;20083;-64
2022/02/10 21:32:21;;;;;;;8.25;4.22;;;8.10;91.90;;;;;;5075280;28;20020;-65
2022/02/10 21:35:04;;;;;;;10.55;5.05;;;8.10;91.90;;;;;;5079401;28;20430;-65
2022/02/10 21:37:30;;;;;;;8.25;4.20;;;8.10;91.80;;;;;;5079125;28;20036;-67
2022/02/10 21:40:10;;;;;;;5.88;3.85;;;8.00;91.40;;;;;;5079035;28;20042;-65
2022/02/10 22:19:02;;;;;;;5.70;2.83;;;8.00;91.00;;;;;;5076600;28;20075;-65
2022/02/10 22:21:33;;;;;;;;;;;8.00;91.10;;;;;;5080917;28;20031;-65
2022/02/10 22:24:01;;;;;;;6.43;3.38;;;8.00;91.10;;;;;;5078587;28;19955;-65
2022/02/10 22:26:30;;;;;;;4.45;2.35;;;8.00;91.00;;;;;;5074064;28;20175;-65
2022/02/10 22:36:29;;;;;;;6.63;1.90;;;7.60;90.90;;;;;;5081884;28;20034;-64
2022/02/10 22:39:00;;;;;;;3.75;1.42;;;7.40;90.60;;;;;;5079659;28;20032;-65
2022/02/10 22:41:27;;;;;;;7.05;1.80;;;7.30;90.80;;;;;;5074249;28;20065;-65
2022/02/10 22:43:53;;;;;;;8.95;1.98;;;7.30;90.90;;;;;;5082501;28;20036;-65
2022/02/10 22:46:20;;;;;;;2.30;1.33;;;7.20;90.90;;;;;;5082331;28;20043;-65
2022/02/10 22:48:48;;;;;;;3.60;1.42;;;7.10;91.30;;;;;;5077526;28;20151;-65
2022/02/10 22:51:16;;;;;;;1.30;1.20;;;7.00;91.30;;;;;;5082899;28;20020;-65
2022/02/10 22:53:42;;;;;;;1.63;1.13;;;7.00;91.30;;;;;;5078467;28;20033;-65
2022/02/10 22:56:10;;;;;;;2.63;1.42;;;6.90;91.70;;;;;;5072747;28;20126;-65
2022/02/10 22:58:40;;;;;;;2.72;1.42;;;6.80;92.20;;;;;;5079850;28;20106;-64
2022/02/10 23:01:07;;;;;;;3.47;2.03;;;6.80;92.40;;;;;;5080214;28;20039;-65
2022/02/10 23:03:36;;;;;;;2.67;1.63;;;6.80;92.70;;;;;;5075093;28;20463;-65
2022/02/10 23:06:03;;;;;;;3.28;1.60;;;6.80;92.80;;;;;;5079774;28;20147;-65
2022/02/10 23:08:29;;;;;;;3.33;1.80;;;6.80;92.80;;;;;;5079457;28;20099;-65
2022/02/10 23:10:55;;;;;;;2.78;1.83;;;6.70;93.00;;;;;;5077809;28;20146;-65
2022/02/10 23:13:27;;;;;;;2.70;1.60;;;6.70;93.00;;;;;;5076584;28;20414;-64
2022/02/10 23:15:54;;;;;;;2.30;1.90;;;6.70;93.00;;;;;;5080460;28;20147;-64
2022/02/10 23:18:26;;;;;;;2.72;1.80;;;6.70;93.00;;;;;;5076894;28;20414;-65
2022/02/10 23:20:55;;;;;;;2.55;1.77;;;6.60;93.20;;;;;;5080433;28;20036;-65
2022/02/10 23:23:24;;;;;;;2.10;1.63;;;6.60;93.00;;;;;;5078222;28;20039;-65
2022/02/10 23:25:52;;;;;;;3.70;1.58;;;6.60;93.10;;;;;;5075769;28;20025;-65
2022/02/10 23:28:23;;;;;;;3.35;2.22;;;6.50;93.20;;;;;;5076463;28;20020;-64
2022/02/10 23:30:50;;;;;;;2.13;1.40;;;6.50;93.40;;;;;;5079778;28;20111;-64
2022/02/10 23:38:34;;;;;;;4.97;1.55;;;6.50;93.40;;;;;;5077896;28;20024;-65
2022/02/10 23:43:46;;;;;;;3.25;1.73;;;6.40;93.50;;;;;;5078436;28;20115;-65
2022/02/10 23:46:12;;;;;;;2.45;2.00;;;6.40;93.30;;;;;;5084787;28;20080;-64
2022/02/10 23:48:39;;;;;;;3.88;1.80;;;6.40;93.40;;;;;;5083448;28;20033;-65
2022/02/10 23:51:05;;;;;;;2.85;1.90;;;6.40;93.60;;;;;;5085575;28;20800;-65
2022/02/10 23:53:31;;;;;;;3.83;2.30;;;6.40;93.40;;;;;;5083538;28;20063;-65
2022/02/10 23:55:59;;;;;;;4.07;1.92;;;6.40;93.30;;;;;;5086451;28;20035;-65
